sensor_id;sensor_type;location;lat;lon;timestamp;temperature;humidity
11264;DHT22;5689;48.798;9.070;2023-03-20T00:01:59;9.30;99.90
11264;DHT22;5689;48.798;9.070;2023-03-20T00:04:27;9.20;99.90
11264;DHT22;5689;48.798;9.070;2023-03-20T00:06:57;9.20;99.90
11264;DHT22;5689;48.798;9.070;2023-03-20T00:09:25;9.20;99.90
11264;DHT22;5689;48.798;9.070;2023-03-20T00:11:54;9.30;99.90
11264;DHT22;5689;48.798;9.070;2023-03-20T00:14:23;9.30;99.90
11264;DHT22;5689;48.798;9.070;2023-03-20T00:16:52;9.30;99.90
11264;DHT22;5689;48.798;9.070;2023-03-20T00:19:22;9.20;99.90
11264;DHT22;5689;48.798;9.070;2023-03-20T00:21:51;9.20;99.90
11264;DHT22;5689;48.798;9.070;2023-03-20T00:24:21;9.10;99.90
11264;DHT22;5689;48.798;9.070;2023-03-20T00:26:50;9.20;99.90
11264;DHT22;5689;48.798;9.070;2023-03-20T00:29:21;9.20;99.90
11264;DHT22;5689;48.798;9.070;2023-03-20T00:31:50;9.30;99.90
11264;DHT22;5689;48.798;9.070;2023-03-20T00:34:20;9.20;99.90
11264;DHT22;5689;48.798;9.070;2023-03-20T00:36:50;9.20;99.90
11264;DHT22;5689;48.798;9.070;2023-03-20T00:39:20;9.40;99.90
11264;DHT22;5689;48.798;9.070;2023-03-20T00:41:51;9.30;99.90
11264;DHT22;5689;48.798;9.070;2023-03-20T00:44:22;9.30;99.90
11264;DHT22;5689;48.798;9.070;2023-03-20T00:46:53;9.40;99.90
11264;DHT22;5689;48.798;9.070;2023-03-20T00:49:23;9.40;99.90
11264;DHT22;5689;48.798;9.070;2023-03-20T00:51:52;9.40;99.90
11264;DHT22;5689;48.798;9.070;2023-03-20T00:54:22;9.40;99.90
11264;DHT22;5689;48.798;9.070;2023-03-20T00:56:54;9.40;99.90
11264;DHT22;5689;48.798;9.070;2023-03-20T00:59:26;9.40;99.90
11264;DHT22;5689;48.798;9.070;2023-03-20T01:01:55;9.30;99.90
11264;DHT22;5689;48.798;9.070;2023-03-20T01:04:24;9.30;99.90
11264;DHT22;5689;48.798;9.070;2023-03-20T01:06:55;9.10;99.90
11264;DHT22;5689;48.798;9.070;2023-03-20T01:09:24;9.10;99.90
11264;DHT22;5689;48.798;9.070;2023-03-20T01:11:52;9.20;99.90
11264;DHT22;5689;48.798;9.070;2023-03-20T01:14:20;9.20;99.90
11264;DHT22;5689;48.798;9.070;2023-03-20T01:16:48;9.20;99.90
11264;DHT22;5689;48.798;9.070;2023-03-20T01:19:17;9.10;99.90
11264;DHT22;5689;48.798;9.070;2023-03-20T01:21:45;9.10;99.90
11264;DHT22;5689;48.798;9.070;2023-03-20T01:24:13;9.10;99.90
11264;DHT22;5689;48.798;9.070;2023-03-20T01:26:43;9.10;99.90
11264;DHT22;5689;48.798;9.070;2023-03-20T01:29:17;9.10;99.90
11264;DHT22;5689;48.798;9.070;2023-03-20T01:31:46;9.10;99.90
11264;DHT22;5689;48.798;9.070;2023-03-20T01:34:16;9.20;99.90
11264;DHT22;5689;48.798;9.070;2023-03-20T01:36:47;9.30;99.90
11264;DHT22;5689;48.798;9.070;2023-03-20T01:39:16;9.30;99.90
11264;DHT22;5689;48.798;9.070;2023-03-20T01:41:50;9.20;99.90
11264;DHT22;5689;48.798;9.070;2023-03-20T01:44:22;9.10;99.90
11264;DHT22;5689;48.798;9.070;2023-03-20T01:46:55;9.10;99.90
11264;DHT22;5689;48.798;9.070;2023-03-20T01:52:29;9.20;99.90
11264;DHT22;5689;48.798;9.070;2023-03-20T01:54:57;9.10;99.90
11264;DHT22;5689;48.798;9.070;2023-03-20T01:57:27;9.10;99.90
11264;DHT22;5689;48.798;9.070;2023-03-20T01:59:59;9.10;99.90
11264;DHT22;5689;48.798;9.070;2023-03-20T02:02:41;9.10;99.90
11264;DHT22;5689;48.798;9.070;2023-03-20T02:05:14;9.20;99.90
11264;DHT22;5689;48.798;9.070;2023-03-20T02:07:48;9.10;99.90
11264;DHT22;5689;48.798;9.070;2023-03-20T02:10:18;9.10;99.90
11264;DHT22;5689;48.798;9.070;2023-03-20T02:12:58;9.00;99.90
11264;DHT22;5689;48.798;9.070;2023-03-20T02:15:33;8.90;99.90
11264;DHT22;5689;48.798;9.070;2023-03-20T02:18:13;9.00;99.90
11264;DHT22;5689;48.798;9.070;2023-03-20T02:20:49;9.00;99.90
11264;DHT22;5689;48.798;9.070;2023-03-20T02:26:48;8.90;99.90
11264;DHT22;5689;48.798;9.070;2023-03-20T02:29:54;9.00;99.90
11264;DHT22;5689;48.798;9.070;2023-03-20T02:39:08;8.80;99.90
11264;DHT22;5689;48.798;9.070;2023-03-20T02:41:41;8.70;99.90
11264;DHT22;5689;48.798;9.070;2023-03-20T02:44:13;8.70;99.90
11264;DHT22;5689;48.798;9.070;2023-03-20T02:46:53;8.80;99.90
11264;DHT22;5689;48.798;9.070;2023-03-20T02:49:39;8.70;99.90
11264;DHT22;5689;48.798;9.070;2023-03-20T02:52:15;8.80;99.90
11264;DHT22;5689;48.798;9.070;2023-03-20T02:54:52;8.70;99.90
11264;DHT22;5689;48.798;9.070;2023-03-20T02:57:28;8.70;99.90
11264;DHT22;5689;48.798;9.070;2023-03-20T03:00:05;8.80;99.90
11264;DHT22;5689;48.798;9.070;2023-03-20T03:02:41;8.80;99.90
11264;DHT22;5689;48.798;9.070;2023-03-20T03:05:15;8.90;99.90
11264;DHT22;5689;48.798;9.070;2023-03-20T03:07:45;8.90;99.90
11264;DHT22;5689;48.798;9.070;2023-03-20T03:10:21;8.80;99.90
11264;DHT22;5689;48.798;9.070;2023-03-20T03:12:54;8.80;99.90
11264;DHT22;5689;48.798;9.070;2023-03-20T03:15:28;8.90;99.90
11264;DHT22;5689;48.798;9.070;2023-03-20T03:17:58;8.90;99.90
11264;DHT22;5689;48.798;9.070;2023-03-20T03:20:29;8.90;99.90
11264;DHT22;5689;48.798;9.070;2023-03-20T03:22:59;9.00;99.90
11264;DHT22;5689;48.798;9.070;2023-03-20T03:25:32;9.10;99.90
11264;DHT22;5689;48.798;9.070;2023-03-20T03:28:06;9.00;99.90
11264;DHT22;5689;48.798;9.070;2023-03-20T03:30:36;9.10;99.90
11264;DHT22;5689;48.798;9.070;2023-03-20T03:33:12;9.10;99.90
11264;DHT22;5689;48.798;9.070;2023-03-20T03:35:43;9.10;99.90
11264;DHT22;5689;48.798;9.070;2023-03-20T03:38:23;9.10;99.90
11264;DHT22;5689;48.798;9.070;2023-03-20T03:41:05;9.00;99.90
11264;DHT22;5689;48.798;9.070;2023-03-20T03:43:37;9.10;99.90
11264;DHT22;5689;48.798;9.070;2023-03-20T03:46:13;9.10;99.90
11264;DHT22;5689;48.798;9.070;2023-03-20T03:48:47;9.10;99.90
11264;DHT22;5689;48.798;9.070;2023-03-20T03:51:19;9.10;99.90
11264;DHT22;5689;48.798;9.070;2023-03-20T03:53:59;9.10;99.90
11264;DHT22;5689;48.798;9.070;2023-03-20T03:56:31;9.00;99.90
11264;DHT22;5689;48.798;9.070;2023-03-20T03:59:03;8.90;99.90
11264;DHT22;5689;48.798;9.070;2023-03-20T04:01:32;8.90;99.90
11264;DHT22;5689;48.798;9.070;2023-03-20T04:04:04;8.90;99.90
11264;DHT22;5689;48.798;9.070;2023-03-20T04:06:33;8.90;99.90
11264;DHT22;5689;48.798;9.070;2023-03-20T04:09:01;8.80;99.90
11264;DHT22;5689;48.798;9.070;2023-03-20T04:11:31;8.90;99.90
11264;DHT22;5689;48.798;9.070;2023-03-20T04:13:59;8.90;99.90
11264;DHT22;5689;48.798;9.070;2023-03-20T04:16:27;8.90;99.90
11264;DHT22;5689;48.798;9.070;2023-03-20T04:18:55;8.90;99.90
11264;DHT22;5689;48.798;9.070;2023-03-20T04:21:23;8.90;99.90
11264;DHT22;5689;48.798;9.070;2023-03-20T04:23:51;8.80;99.90
11264;DHT22;5689;48.798;9.070;2023-03-20T04:26:21;8.70;99.90
11264;DHT22;5689;48.798;9.070;2023-03-20T04:28:50;8.60;99.90
11264;DHT22;5689;48.798;9.070;2023-03-20T04:31:37;8.50;99.90
11264;DHT22;5689;48.798;9.070;2023-03-20T04:34:20;8.50;99.90
11264;DHT22;5689;48.798;9.070;2023-03-20T04:37:04;8.50;99.90
11264;DHT22;5689;48.798;9.070;2023-03-20T04:39:54;8.40;99.90
11264;DHT22;5689;48.798;9.070;2023-03-20T04:42:22;8.40;99.90
11264;DHT22;5689;48.798;9.070;2023-03-20T04:44:57;8.40;99.90
11264;DHT22;5689;48.798;9.070;2023-03-20T04:47:25;8.40;99.90
11264;DHT22;5689;48.798;9.070;2023-03-20T04:49:54;8.30;99.90
11264;DHT22;5689;48.798;9.070;2023-03-20T04:52:22;8.40;99.90
11264;DHT22;5689;48.798;9.070;2023-03-20T04:54:50;8.40;99.90
11264;DHT22;5689;48.798;9.070;2023-03-20T04:57:18;8.30;99.90
11264;DHT22;5689;48.798;9.070;2023-03-20T04:59:46;8.30;99.90
11264;DHT22;5689;48.798;9.070;2023-03-20T05:02:15;8.40;99.90
11264;DHT22;5689;48.798;9.070;2023-03-20T05:04:44;8.40;99.90
11264;DHT22;5689;48.798;9.070;2023-03-20T05:07:12;8.60;99.90
11264;DHT22;5689;48.798;9.070;2023-03-20T05:09:49;8.60;99.90
11264;DHT22;5689;48.798;9.070;2023-03-20T05:12:17;8.70;99.90
11264;DHT22;5689;48.798;9.070;2023-03-20T05:14:57;8.60;99.90
11264;DHT22;5689;48.798;9.070;2023-03-20T05:17:49;8.60;99.90
11264;DHT22;5689;48.798;9.070;2023-03-20T05:20:30;8.70;99.90
11264;DHT22;5689;48.798;9.070;2023-03-20T05:23:04;8.70;99.90
11264;DHT22;5689;48.798;9.070;2023-03-20T05:25:48;8.60;99.90
11264;DHT22;5689;48.798;9.070;2023-03-20T05:28:36;8.50;99.90
11264;DHT22;5689;48.798;9.070;2023-03-20T05:31:11;8.50;99.90
11264;DHT22;5689;48.798;9.070;2023-03-20T05:33:59;8.60;99.90
11264;DHT22;5689;48.798;9.070;2023-03-20T05:36:40;8.60;99.90
11264;DHT22;5689;48.798;9.070;2023-03-20T05:39:27;8.40;99.90
11264;DHT22;5689;48.798;9.070;2023-03-20T05:42:18;8.40;99.90
11264;DHT22;5689;48.798;9.070;2023-03-20T05:45:00;8.50;99.90
11264;DHT22;5689;48.798;9.070;2023-03-20T05:47:44;8.50;99.90
11264;DHT22;5689;48.798;9.070;2023-03-20T05:50:37;8.50;99.90
11264;DHT22;5689;48.798;9.070;2023-03-20T05:53:34;8.50;99.90
11264;DHT22;5689;48.798;9.070;2023-03-20T05:56:35;8.60;99.90
11264;DHT22;5689;48.798;9.070;2023-03-20T05:59:28;8.50;99.90
11264;DHT22;5689;48.798;9.070;2023-03-20T06:02:15;8.50;99.90
11264;DHT22;5689;48.798;9.070;2023-03-20T06:04:52;8.60;99.90
11264;DHT22;5689;48.798;9.070;2023-03-20T06:07:30;8.70;99.90
11264;DHT22;5689;48.798;9.070;2023-03-20T06:10:02;8.80;99.90
11264;DHT22;5689;48.798;9.070;2023-03-20T06:12:31;8.80;99.90
11264;DHT22;5689;48.798;9.070;2023-03-20T06:14:59;8.90;99.90
11264;DHT22;5689;48.798;9.070;2023-03-20T06:17:30;8.90;99.90
11264;DHT22;5689;48.798;9.070;2023-03-20T06:20:01;8.90;99.90
11264;DHT22;5689;48.798;9.070;2023-03-20T06:22:31;9.00;99.90
11264;DHT22;5689;48.798;9.070;2023-03-20T06:24:59;9.00;99.90
11264;DHT22;5689;48.798;9.070;2023-03-20T06:27:33;9.10;99.90
11264;DHT22;5689;48.798;9.070;2023-03-20T06:30:02;9.20;99.90
11264;DHT22;5689;48.798;9.070;2023-03-20T06:32:33;9.30;99.90
11264;DHT22;5689;48.798;9.070;2023-03-20T06:35:03;9.30;99.90
11264;DHT22;5689;48.798;9.070;2023-03-20T06:37:35;9.50;99.90
11264;DHT22;5689;48.798;9.070;2023-03-20T06:40:11;9.70;99.90
11264;DHT22;5689;48.798;9.070;2023-03-20T06:42:39;9.80;99.90
11264;DHT22;5689;48.798;9.070;2023-03-20T06:45:09;9.70;99.90
11264;DHT22;5689;48.798;9.070;2023-03-20T06:47:50;9.70;99.90
11264;DHT22;5689;48.798;9.070;2023-03-20T06:50:18;10.10;99.90
11264;DHT22;5689;48.798;9.070;2023-03-20T06:52:48;10.40;99.90
11264;DHT22;5689;48.798;9.070;2023-03-20T06:55:45;10.90;99.90
11264;DHT22;5689;48.798;9.070;2023-03-20T06:58:14;11.00;99.90
11264;DHT22;5689;48.798;9.070;2023-03-20T07:00:44;11.30;99.90
11264;DHT22;5689;48.798;9.070;2023-03-20T07:03:12;11.30;99.90
11264;DHT22;5689;48.798;9.070;2023-03-20T07:05:44;11.40;99.90
11264;DHT22;5689;48.798;9.070;2023-03-20T07:08:13;11.70;99.90
11264;DHT22;5689;48.798;9.070;2023-03-20T07:10:41;11.90;99.90
11264;DHT22;5689;48.798;9.070;2023-03-20T07:13:11;12.00;99.90
11264;DHT22;5689;48.798;9.070;2023-03-20T07:15:41;12.20;99.90
11264;DHT22;5689;48.798;9.070;2023-03-20T07:18:23;12.20;99.90
11264;DHT22;5689;48.798;9.070;2023-03-20T07:20:52;11.80;99.90
11264;DHT22;5689;48.798;9.070;2023-03-20T07:23:21;11.60;99.90
11264;DHT22;5689;48.798;9.070;2023-03-20T07:25:50;11.40;99.90
11264;DHT22;5689;48.798;9.070;2023-03-20T07:28:18;11.20;99.90
11264;DHT22;5689;48.798;9.070;2023-03-20T07:30:51;11.00;99.90
11264;DHT22;5689;48.798;9.070;2023-03-20T07:33:22;10.70;99.90
11264;DHT22;5689;48.798;9.070;2023-03-20T07:35:52;10.70;99.90
11264;DHT22;5689;48.798;9.070;2023-03-20T07:38:22;10.70;99.90
11264;DHT22;5689;48.798;9.070;2023-03-20T07:41:02;10.60;99.90
11264;DHT22;5689;48.798;9.070;2023-03-20T07:43:32;10.90;99.90
11264;DHT22;5689;48.798;9.070;2023-03-20T07:46:19;10.80;99.90
11264;DHT22;5689;48.798;9.070;2023-03-20T07:48:47;10.80;99.90
11264;DHT22;5689;48.798;9.070;2023-03-20T07:51:15;11.10;99.90
11264;DHT22;5689;48.798;9.070;2023-03-20T07:53:44;11.30;99.90
11264;DHT22;5689;48.798;9.070;2023-03-20T07:56:13;11.80;99.90
11264;DHT22;5689;48.798;9.070;2023-03-20T07:58:41;11.90;99.90
11264;DHT22;5689;48.798;9.070;2023-03-20T08:01:09;11.70;99.90
11264;DHT22;5689;48.798;9.070;2023-03-20T08:03:37;11.80;99.90
11264;DHT22;5689;48.798;9.070;2023-03-20T08:06:06;12.00;99.90
11264;DHT22;5689;48.798;9.070;2023-03-20T08:08:35;12.00;99.90
11264;DHT22;5689;48.798;9.070;2023-03-20T08:11:04;12.10;99.90
11264;DHT22;5689;48.798;9.070;2023-03-20T08:13:32;12.20;99.90
11264;DHT22;5689;48.798;9.070;2023-03-20T08:16:00;12.40;99.90
11264;DHT22;5689;48.798;9.070;2023-03-20T08:18:28;12.40;99.90
11264;DHT22;5689;48.798;9.070;2023-03-20T08:20:56;11.80;99.90
11264;DHT22;5689;48.798;9.070;2023-03-20T08:23:24;11.80;99.90
11264;DHT22;5689;48.798;9.070;2023-03-20T08:25:52;12.10;99.90
11264;DHT22;5689;48.798;9.070;2023-03-20T08:28:22;12.20;99.90
11264;DHT22;5689;48.798;9.070;2023-03-20T08:31:07;12.40;99.90
11264;DHT22;5689;48.798;9.070;2023-03-20T08:33:35;12.20;99.90
11264;DHT22;5689;48.798;9.070;2023-03-20T08:36:03;12.20;99.90
11264;DHT22;5689;48.798;9.070;2023-03-20T08:38:32;12.60;99.90
11264;DHT22;5689;48.798;9.070;2023-03-20T08:40:59;12.80;99.90
11264;DHT22;5689;48.798;9.070;2023-03-20T08:43:29;12.70;99.90
11264;DHT22;5689;48.798;9.070;2023-03-20T08:45:57;12.80;99.90
11264;DHT22;5689;48.798;9.070;2023-03-20T08:48:25;12.90;99.90
11264;DHT22;5689;48.798;9.070;2023-03-20T08:50:52;13.40;99.90
11264;DHT22;5689;48.798;9.070;2023-03-20T08:53:20;14.00;99.90
11264;DHT22;5689;48.798;9.070;2023-03-20T08:55:49;13.80;99.90
11264;DHT22;5689;48.798;9.070;2023-03-20T08:58:20;14.20;99.90
11264;DHT22;5689;48.798;9.070;2023-03-20T09:00:50;14.30;99.90
11264;DHT22;5689;48.798;9.070;2023-03-20T09:03:19;14.20;99.90
11264;DHT22;5689;48.798;9.070;2023-03-20T09:05:49;15.00;99.90
11264;DHT22;5689;48.798;9.070;2023-03-20T09:08:18;15.30;99.90
11264;DHT22;5689;48.798;9.070;2023-03-20T09:10:46;14.80;99.90
11264;DHT22;5689;48.798;9.070;2023-03-20T09:13:17;15.60;99.90
11264;DHT22;5689;48.798;9.070;2023-03-20T09:15:55;15.50;99.90
11264;DHT22;5689;48.798;9.070;2023-03-20T09:18:24;15.60;99.90
11264;DHT22;5689;48.798;9.070;2023-03-20T09:20:52;15.30;99.90
11264;DHT22;5689;48.798;9.070;2023-03-20T09:23:22;15.30;99.90
11264;DHT22;5689;48.798;9.070;2023-03-20T09:25:50;15.40;99.90
11264;DHT22;5689;48.798;9.070;2023-03-20T09:28:18;15.30;99.90
11264;DHT22;5689;48.798;9.070;2023-03-20T09:30:46;15.60;99.90
11264;DHT22;5689;48.798;9.070;2023-03-20T09:33:15;15.60;99.90
11264;DHT22;5689;48.798;9.070;2023-03-20T09:35:44;16.10;99.90
11264;DHT22;5689;48.798;9.070;2023-03-20T09:38:12;16.20;99.90
11264;DHT22;5689;48.798;9.070;2023-03-20T09:40:49;15.80;99.90
11264;DHT22;5689;48.798;9.070;2023-03-20T09:43:32;15.90;99.90
11264;DHT22;5689;48.798;9.070;2023-03-20T09:46:12;15.30;99.90
11264;DHT22;5689;48.798;9.070;2023-03-20T09:48:48;15.40;99.90
11264;DHT22;5689;48.798;9.070;2023-03-20T09:51:25;15.50;99.90
11264;DHT22;5689;48.798;9.070;2023-03-20T09:54:00;15.60;99.90
11264;DHT22;5689;48.798;9.070;2023-03-20T09:56:30;14.90;99.90
11264;DHT22;5689;48.798;9.070;2023-03-20T09:59:00;14.10;99.90
11264;DHT22;5689;48.798;9.070;2023-03-20T10:01:32;14.00;99.90
11264;DHT22;5689;48.798;9.070;2023-03-20T10:04:08;13.30;99.90
11264;DHT22;5689;48.798;9.070;2023-03-20T10:06:36;12.80;99.90
11264;DHT22;5689;48.798;9.070;2023-03-20T10:09:12;12.90;99.90
11264;DHT22;5689;48.798;9.070;2023-03-20T10:14:40;12.50;99.90
11264;DHT22;5689;48.798;9.070;2023-03-20T10:17:27;12.30;99.90
11264;DHT22;5689;48.798;9.070;2023-03-20T10:20:08;12.30;99.90
11264;DHT22;5689;48.798;9.070;2023-03-20T10:22:41;12.20;99.90
11264;DHT22;5689;48.798;9.070;2023-03-20T10:25:21;12.20;99.90
11264;DHT22;5689;48.798;9.070;2023-03-20T10:27:53;12.10;99.90
11264;DHT22;5689;48.798;9.070;2023-03-20T10:30:32;12.20;99.90
11264;DHT22;5689;48.798;9.070;2023-03-20T10:33:12;12.20;99.90
11264;DHT22;5689;48.798;9.070;2023-03-20T10:35:54;12.20;99.90
11264;DHT22;5689;48.798;9.070;2023-03-20T10:38:30;12.40;99.90
11264;DHT22;5689;48.798;9.070;2023-03-20T10:40:59;12.60;99.90
11264;DHT22;5689;48.798;9.070;2023-03-20T10:43:30;12.60;99.90
11264;DHT22;5689;48.798;9.070;2023-03-20T10:46:06;12.70;99.90
11264;DHT22;5689;48.798;9.070;2023-03-20T10:48:38;12.70;99.90
11264;DHT22;5689;48.798;9.070;2023-03-20T10:51:12;12.90;99.90
11264;DHT22;5689;48.798;9.070;2023-03-20T10:53:45;12.60;99.90
11264;DHT22;5689;48.798;9.070;2023-03-20T10:56:26;12.20;99.90
11264;DHT22;5689;48.798;9.070;2023-03-20T10:59:00;12.30;99.90
11264;DHT22;5689;48.798;9.070;2023-03-20T11:01:30;12.40;99.90
11264;DHT22;5689;48.798;9.070;2023-03-20T11:04:01;12.20;99.90
11264;DHT22;5689;48.798;9.070;2023-03-20T11:06:33;12.10;99.90
11264;DHT22;5689;48.798;9.070;2023-03-20T11:09:11;12.20;99.90
11264;DHT22;5689;48.798;9.070;2023-03-20T11:11:45;12.40;99.90
11264;DHT22;5689;48.798;9.070;2023-03-20T11:14:17;12.50;99.90
11264;DHT22;5689;48.798;9.070;2023-03-20T11:16:47;12.50;99.90
11264;DHT22;5689;48.798;9.070;2023-03-20T11:19:19;12.50;99.90
11264;DHT22;5689;48.798;9.070;2023-03-20T11:21:50;12.30;99.90
11264;DHT22;5689;48.798;9.070;2023-03-20T11:24:25;12.20;99.90
11264;DHT22;5689;48.798;9.070;2023-03-20T11:26:55;12.10;99.90
11264;DHT22;5689;48.798;9.070;2023-03-20T11:29:35;12.10;99.90
11264;DHT22;5689;48.798;9.070;2023-03-20T11:32:06;12.10;99.90
11264;DHT22;5689;48.798;9.070;2023-03-20T11:34:36;12.50;99.90
11264;DHT22;5689;48.798;9.070;2023-03-20T11:37:21;12.40;99.90
11264;DHT22;5689;48.798;9.070;2023-03-20T11:39:57;12.90;99.90
11264;DHT22;5689;48.798;9.070;2023-03-20T11:42:27;13.40;99.90
11264;DHT22;5689;48.798;9.070;2023-03-20T11:44:58;13.70;99.90
11264;DHT22;5689;48.798;9.070;2023-03-20T11:47:30;14.20;99.90
11264;DHT22;5689;48.798;9.070;2023-03-20T11:50:01;13.90;99.90
11264;DHT22;5689;48.798;9.070;2023-03-20T11:52:32;13.90;99.90
11264;DHT22;5689;48.798;9.070;2023-03-20T11:55:04;14.00;99.90
11264;DHT22;5689;48.798;9.070;2023-03-20T11:57:35;14.20;99.90
11264;DHT22;5689;48.798;9.070;2023-03-20T12:00:16;13.90;99.90
11264;DHT22;5689;48.798;9.070;2023-03-20T12:02:45;14.40;99.90
11264;DHT22;5689;48.798;9.070;2023-03-20T12:05:30;14.70;99.90
11264;DHT22;5689;48.798;9.070;2023-03-20T12:08:01;14.60;99.90
11264;DHT22;5689;48.798;9.070;2023-03-20T12:10:34;14.30;99.90
11264;DHT22;5689;48.798;9.070;2023-03-20T12:13:10;14.20;99.90
11264;DHT22;5689;48.798;9.070;2023-03-20T12:15:41;14.20;99.90
11264;DHT22;5689;48.798;9.070;2023-03-20T12:18:14;14.20;99.90
11264;DHT22;5689;48.798;9.070;2023-03-20T12:20:48;14.90;99.90
11264;DHT22;5689;48.798;9.070;2023-03-20T12:23:29;14.50;99.90
11264;DHT22;5689;48.798;9.070;2023-03-20T12:26:02;15.10;99.90
11264;DHT22;5689;48.798;9.070;2023-03-20T12:28:36;15.70;99.90
11264;DHT22;5689;48.798;9.070;2023-03-20T12:31:16;15.30;99.90
11264;DHT22;5689;48.798;9.070;2023-03-20T12:33:50;15.50;99.90
11264;DHT22;5689;48.798;9.070;2023-03-20T12:36:25;14.80;99.90
11264;DHT22;5689;48.798;9.070;2023-03-20T12:38:56;14.00;99.90
11264;DHT22;5689;48.798;9.070;2023-03-20T12:41:28;13.70;99.90
11264;DHT22;5689;48.798;9.070;2023-03-20T12:44:18;13.60;99.90
11264;DHT22;5689;48.798;9.070;2023-03-20T12:46:55;14.10;99.90
11264;DHT22;5689;48.798;9.070;2023-03-20T12:49:31;14.20;99.90
11264;DHT22;5689;48.798;9.070;2023-03-20T12:52:10;14.30;99.90
11264;DHT22;5689;48.798;9.070;2023-03-20T12:55:03;13.70;99.90
11264;DHT22;5689;48.798;9.070;2023-03-20T12:57:36;13.50;99.90
11264;DHT22;5689;48.798;9.070;2023-03-20T13:00:17;13.70;99.90
11264;DHT22;5689;48.798;9.070;2023-03-20T13:02:55;13.10;99.90
11264;DHT22;5689;48.798;9.070;2023-03-20T13:05:32;13.10;99.90
11264;DHT22;5689;48.798;9.070;2023-03-20T13:11:07;13.60;99.90
11264;DHT22;5689;48.798;9.070;2023-03-20T13:13:41;13.80;99.90
11264;DHT22;5689;48.798;9.070;2023-03-20T13:16:17;14.00;99.90
11264;DHT22;5689;48.798;9.070;2023-03-20T13:18:54;14.10;99.90
11264;DHT22;5689;48.798;9.070;2023-03-20T13:21:30;14.50;99.90
11264;DHT22;5689;48.798;9.070;2023-03-20T13:24:18;14.30;99.90
11264;DHT22;5689;48.798;9.070;2023-03-20T13:26:56;14.30;99.90
11264;DHT22;5689;48.798;9.070;2023-03-20T13:29:32;14.80;99.90
11264;DHT22;5689;48.798;9.070;2023-03-20T13:32:12;14.80;99.90
11264;DHT22;5689;48.798;9.070;2023-03-20T13:35:00;14.70;99.90
11264;DHT22;5689;48.798;9.070;2023-03-20T13:37:32;15.50;99.90
11264;DHT22;5689;48.798;9.070;2023-03-20T13:40:10;16.30;99.90
11264;DHT22;5689;48.798;9.070;2023-03-20T13:42:46;16.90;99.90
11264;DHT22;5689;48.798;9.070;2023-03-20T13:45:27;16.50;99.90
11264;DHT22;5689;48.798;9.070;2023-03-20T13:47:59;16.50;99.90
11264;DHT22;5689;48.798;9.070;2023-03-20T13:50:38;15.70;99.90
11264;DHT22;5689;48.798;9.070;2023-03-20T13:53:17;15.50;99.90
11264;DHT22;5689;48.798;9.070;2023-03-20T13:55:53;15.80;99.90
11264;DHT22;5689;48.798;9.070;2023-03-20T13:58:36;15.50;99.90
11264;DHT22;5689;48.798;9.070;2023-03-20T14:01:12;15.50;99.90
11264;DHT22;5689;48.798;9.070;2023-03-20T14:03:44;15.50;99.90
11264;DHT22;5689;48.798;9.070;2023-03-20T14:06:17;15.30;99.90
11264;DHT22;5689;48.798;9.070;2023-03-20T14:08:52;14.70;99.90
11264;DHT22;5689;48.798;9.070;2023-03-20T14:11:28;14.90;99.90
11264;DHT22;5689;48.798;9.070;2023-03-20T14:14:13;15.00;99.90
11264;DHT22;5689;48.798;9.070;2023-03-20T14:16:41;14.90;99.90
11264;DHT22;5689;48.798;9.070;2023-03-20T14:19:17;14.90;99.90
11264;DHT22;5689;48.798;9.070;2023-03-20T14:21:47;14.90;99.90
11264;DHT22;5689;48.798;9.070;2023-03-20T14:24:16;14.90;99.90
11264;DHT22;5689;48.798;9.070;2023-03-20T14:26:48;15.40;99.90
11264;DHT22;5689;48.798;9.070;2023-03-20T14:29:32;15.60;99.90
11264;DHT22;5689;48.798;9.070;2023-03-20T14:35:23;16.30;98.60
11264;DHT22;5689;48.798;9.070;2023-03-20T14:38:19;16.00;98.20
11264;DHT22;5689;48.798;9.070;2023-03-20T14:40:59;16.00;98.00
11264;DHT22;5689;48.798;9.070;2023-03-20T14:43:46;15.90;98.00
11264;DHT22;5689;48.798;9.070;2023-03-20T14:46:30;15.60;98.10
11264;DHT22;5689;48.798;9.070;2023-03-20T14:49:22;15.60;98.30
11264;DHT22;5689;48.798;9.070;2023-03-20T14:51:55;15.50;98.40
11264;DHT22;5689;48.798;9.070;2023-03-20T14:54:29;15.40;97.60
11264;DHT22;5689;48.798;9.070;2023-03-20T14:57:08;15.20;97.30
11264;DHT22;5689;48.798;9.070;2023-03-20T14:59:36;15.10;98.10
11264;DHT22;5689;48.798;9.070;2023-03-20T15:02:22;15.20;97.10
11264;DHT22;5689;48.798;9.070;2023-03-20T15:04:51;14.90;98.10
11264;DHT22;5689;48.798;9.070;2023-03-20T15:07:23;15.00;97.70
11264;DHT22;5689;48.798;9.070;2023-03-20T15:09:57;14.70;97.50
11264;DHT22;5689;48.798;9.070;2023-03-20T15:12:32;14.80;97.60
11264;DHT22;5689;48.798;9.070;2023-03-20T15:15:03;14.80;96.80
11264;DHT22;5689;48.798;9.070;2023-03-20T15:17:36;14.60;96.80
11264;DHT22;5689;48.798;9.070;2023-03-20T15:20:11;14.50;96.90
11264;DHT22;5689;48.798;9.070;2023-03-20T15:22:49;14.00;98.00
11264;DHT22;5689;48.798;9.070;2023-03-20T15:25:18;14.20;96.90
11264;DHT22;5689;48.798;9.070;2023-03-20T15:27:47;14.40;96.60
11264;DHT22;5689;48.798;9.070;2023-03-20T15:30:19;13.80;98.00
11264;DHT22;5689;48.798;9.070;2023-03-20T15:32:52;14.00;97.90
11264;DHT22;5689;48.798;9.070;2023-03-20T15:35:21;14.10;98.70
11264;DHT22;5689;48.798;9.070;2023-03-20T15:37:51;14.10;99.10
11264;DHT22;5689;48.798;9.070;2023-03-20T15:40:23;14.20;98.50
11264;DHT22;5689;48.798;9.070;2023-03-20T15:42:52;14.20;98.40
11264;DHT22;5689;48.798;9.070;2023-03-20T15:45:24;14.10;99.10
11264;DHT22;5689;48.798;9.070;2023-03-20T15:48:00;13.70;99.50
11264;DHT22;5689;48.798;9.070;2023-03-20T15:50:30;13.60;99.60
11264;DHT22;5689;48.798;9.070;2023-03-20T15:52:59;13.80;99.00
11264;DHT22;5689;48.798;9.070;2023-03-20T15:55:27;13.90;99.30
11264;DHT22;5689;48.798;9.070;2023-03-20T15:57:57;13.80;99.50
11264;DHT22;5689;48.798;9.070;2023-03-20T16:00:29;13.90;99.20
11264;DHT22;5689;48.798;9.070;2023-03-20T16:03:01;13.80;99.20
11264;DHT22;5689;48.798;9.070;2023-03-20T16:05:30;13.80;99.20
11264;DHT22;5689;48.798;9.070;2023-03-20T16:08:11;13.90;99.50
11264;DHT22;5689;48.798;9.070;2023-03-20T16:10:41;14.10;99.00
11264;DHT22;5689;48.798;9.070;2023-03-20T16:13:12;14.10;99.10
11264;DHT22;5689;48.798;9.070;2023-03-20T16:15:43;14.30;99.00
11264;DHT22;5689;48.798;9.070;2023-03-20T16:18:15;14.40;98.70
11264;DHT22;5689;48.798;9.070;2023-03-20T16:20:49;14.20;98.80
11264;DHT22;5689;48.798;9.070;2023-03-20T16:23:29;14.10;98.80
11264;DHT22;5689;48.798;9.070;2023-03-20T16:25:59;13.90;98.90
11264;DHT22;5689;48.798;9.070;2023-03-20T16:28:30;13.90;99.00
11264;DHT22;5689;48.798;9.070;2023-03-20T16:31:08;13.90;98.20
11264;DHT22;5689;48.798;9.070;2023-03-20T16:33:40;13.90;98.40
11264;DHT22;5689;48.798;9.070;2023-03-20T16:36:12;13.80;98.80
11264;DHT22;5689;48.798;9.070;2023-03-20T16:38:53;13.70;98.60
11264;DHT22;5689;48.798;9.070;2023-03-20T16:41:27;13.30;99.30
11264;DHT22;5689;48.798;9.070;2023-03-20T16:43:56;13.30;99.70
11264;DHT22;5689;48.798;9.070;2023-03-20T16:46:26;12.90;99.90
11264;DHT22;5689;48.798;9.070;2023-03-20T16:48:57;12.90;99.90
11264;DHT22;5689;48.798;9.070;2023-03-20T16:51:30;12.60;99.90
11264;DHT22;5689;48.798;9.070;2023-03-20T16:53:59;12.50;99.90
11264;DHT22;5689;48.798;9.070;2023-03-20T16:56:32;12.60;99.90